sensor_id;sensor_type;location;lat;lon;timestamp;P1;durP1;ratioP1;P2;durP2;ratioP2
62880;SDS011;48969;49.934;8.596;2022-08-19T00:01:30;18.40;;;16.70;;
62880;SDS011;48969;49.934;8.596;2022-08-19T00:03:57;16.40;;;14.80;;
62880;SDS011;48969;49.934;8.596;2022-08-19T00:06:24;16.35;;;14.85;;
62880;SDS011;48969;49.934;8.596;2022-08-19T00:08:49;16.15;;;14.55;;
62880;SDS011;48969;49.934;8.596;2022-08-19T00:11:16;16.90;;;15.13;;
62880;SDS011;48969;49.934;8.596;2022-08-19T00:13:42;16.90;;;15.20;;
62880;SDS011;48969;49.934;8.596;2022-08-19T00:16:08;16.15;;;14.55;;
62880;SDS011;48969;49.934;8.596;2022-08-19T00:18:33;17.92;;;16.23;;
62880;SDS011;48969;49.934;8.596;2022-08-19T00:21:01;16.95;;;15.23;;
62880;SDS011;48969;49.934;8.596;2022-08-19T00:23:29;16.88;;;15.27;;
62880;SDS011;48969;49.934;8.596;2022-08-19T00:25:55;16.88;;;15.18;;
62880;SDS011;48969;49.934;8.596;2022-08-19T00:28:20;14.70;;;13.30;;
62880;SDS011;48969;49.934;8.596;2022-08-19T00:30:46;16.92;;;15.27;;
62880;SDS011;48969;49.934;8.596;2022-08-19T00:33:12;16.65;;;15.05;;
62880;SDS011;48969;49.934;8.596;2022-08-19T00:35:38;16.42;;;14.77;;
62880;SDS011;48969;49.934;8.596;2022-08-19T00:38:04;16.13;;;14.52;;
62880;SDS011;48969;49.934;8.596;2022-08-19T00:40:31;16.65;;;15.05;;
62880;SDS011;48969;49.934;8.596;2022-08-19T00:42:58;15.02;;;13.63;;
62880;SDS011;48969;49.934;8.596;2022-08-19T00:45:25;16.80;;;15.20;;
62880;SDS011;48969;49.934;8.596;2022-08-19T00:47:52;15.55;;;14.15;;
62880;SDS011;48969;49.934;8.596;2022-08-19T00:50:19;17.30;;;15.52;;
62880;SDS011;48969;49.934;8.596;2022-08-19T00:52:47;16.55;;;14.95;;
62880;SDS011;48969;49.934;8.596;2022-08-19T00:55:19;16.13;;;14.60;;
62880;SDS011;48969;49.934;8.596;2022-08-19T00:57:50;17.70;;;16.08;;
62880;SDS011;48969;49.934;8.596;2022-08-19T01:00:21;17.23;;;15.63;;
62880;SDS011;48969;49.934;8.596;2022-08-19T01:02:49;16.50;;;14.88;;
62880;SDS011;48969;49.934;8.596;2022-08-19T01:05:18;17.38;;;15.70;;
62880;SDS011;48969;49.934;8.596;2022-08-19T01:07:46;16.25;;;14.68;;
62880;SDS011;48969;49.934;8.596;2022-08-19T01:10:14;17.85;;;16.05;;
62880;SDS011;48969;49.934;8.596;2022-08-19T01:12:43;16.25;;;14.75;;
62880;SDS011;48969;49.934;8.596;2022-08-19T01:15:11;16.88;;;15.18;;
62880;SDS011;48969;49.934;8.596;2022-08-19T01:17:39;18.85;;;16.65;;
62880;SDS011;48969;49.934;8.596;2022-08-19T01:20:09;19.77;;;16.73;;
62880;SDS011;48969;49.934;8.596;2022-08-19T01:22:48;16.90;;;15.00;;
62880;SDS011;48969;49.934;8.596;2022-08-19T01:25:18;17.05;;;15.35;;
62880;SDS011;48969;49.934;8.596;2022-08-19T01:27:49;15.82;;;14.32;;
62880;SDS011;48969;49.934;8.596;2022-08-19T01:30:23;15.98;;;14.38;;
62880;SDS011;48969;49.934;8.596;2022-08-19T01:32:53;16.33;;;14.80;;
62880;SDS011;48969;49.934;8.596;2022-08-19T01:35:20;16.35;;;14.75;;
62880;SDS011;48969;49.934;8.596;2022-08-19T01:37:52;16.13;;;14.63;;
62880;SDS011;48969;49.934;8.596;2022-08-19T01:40:20;17.15;;;15.38;;
62880;SDS011;48969;49.934;8.596;2022-08-19T01:42:48;16.60;;;15.07;;
62880;SDS011;48969;49.934;8.596;2022-08-19T01:45:14;15.80;;;14.20;;
62880;SDS011;48969;49.934;8.596;2022-08-19T01:47:40;21.85;;;15.38;;
62880;SDS011;48969;49.934;8.596;2022-08-19T01:50:07;16.95;;;15.27;;
62880;SDS011;48969;49.934;8.596;2022-08-19T01:52:39;16.63;;;14.93;;
62880;SDS011;48969;49.934;8.596;2022-08-19T01:55:06;18.08;;;16.17;;
62880;SDS011;48969;49.934;8.596;2022-08-19T01:57:33;15.70;;;14.20;;
62880;SDS011;48969;49.934;8.596;2022-08-19T01:59:59;17.48;;;15.70;;
62880;SDS011;48969;49.934;8.596;2022-08-19T02:02:25;15.65;;;14.07;;
62880;SDS011;48969;49.934;8.596;2022-08-19T02:04:51;15.52;;;14.00;;
62880;SDS011;48969;49.934;8.596;2022-08-19T02:07:19;16.60;;;14.98;;
62880;SDS011;48969;49.934;8.596;2022-08-19T02:09:47;15.65;;;14.18;;
62880;SDS011;48969;49.934;8.596;2022-08-19T02:12:13;15.20;;;13.75;;
62880;SDS011;48969;49.934;8.596;2022-08-19T02:14:39;15.70;;;14.10;;
62880;SDS011;48969;49.934;8.596;2022-08-19T02:17:05;16.52;;;14.82;;
62880;SDS011;48969;49.934;8.596;2022-08-19T02:19:31;17.92;;;16.08;;
62880;SDS011;48969;49.934;8.596;2022-08-19T02:21:57;16.20;;;14.63;;
62880;SDS011;48969;49.934;8.596;2022-08-19T02:24:27;16.33;;;14.82;;
62880;SDS011;48969;49.934;8.596;2022-08-19T02:26:52;16.95;;;15.25;;
62880;SDS011;48969;49.934;8.596;2022-08-19T02:29:19;13.93;;;12.52;;
62880;SDS011;48969;49.934;8.596;2022-08-19T02:31:44;16.08;;;14.32;;
62880;SDS011;48969;49.934;8.596;2022-08-19T02:34:10;15.75;;;14.18;;
62880;SDS011;48969;49.934;8.596;2022-08-19T02:36:35;15.68;;;14.13;;
62880;SDS011;48969;49.934;8.596;2022-08-19T02:39:01;17.23;;;14.95;;
62880;SDS011;48969;49.934;8.596;2022-08-19T02:41:31;16.92;;;15.23;;
62880;SDS011;48969;49.934;8.596;2022-08-19T02:43:58;16.50;;;14.80;;
62880;SDS011;48969;49.934;8.596;2022-08-19T02:46:29;15.55;;;14.07;;
62880;SDS011;48969;49.934;8.596;2022-08-19T02:48:57;15.80;;;14.30;;
62880;SDS011;48969;49.934;8.596;2022-08-19T02:51:36;15.20;;;13.70;;
62880;SDS011;48969;49.934;8.596;2022-08-19T02:54:04;16.90;;;15.27;;
62880;SDS011;48969;49.934;8.596;2022-08-19T02:56:30;17.17;;;15.38;;
62880;SDS011;48969;49.934;8.596;2022-08-19T02:58:57;15.07;;;13.57;;
62880;SDS011;48969;49.934;8.596;2022-08-19T03:01:24;19.55;;;13.60;;
62880;SDS011;48969;49.934;8.596;2022-08-19T03:03:53;15.40;;;13.80;;
62880;SDS011;48969;49.934;8.596;2022-08-19T03:06:19;14.88;;;13.38;;
62880;SDS011;48969;49.934;8.596;2022-08-19T03:08:45;15.50;;;13.90;;
62880;SDS011;48969;49.934;8.596;2022-08-19T03:11:19;15.25;;;13.85;;
62880;SDS011;48969;49.934;8.596;2022-08-19T03:13:46;15.90;;;14.30;;
62880;SDS011;48969;49.934;8.596;2022-08-19T03:16:13;17.00;;;15.20;;
62880;SDS011;48969;49.934;8.596;2022-08-19T03:18:39;16.70;;;14.90;;
62880;SDS011;48969;49.934;8.596;2022-08-19T03:21:05;15.57;;;14.10;;
62880;SDS011;48969;49.934;8.596;2022-08-19T03:23:30;16.40;;;14.80;;
62880;SDS011;48969;49.934;8.596;2022-08-19T03:25:56;16.33;;;14.63;;
62880;SDS011;48969;49.934;8.596;2022-08-19T03:28:22;17.50;;;15.80;;
62880;SDS011;48969;49.934;8.596;2022-08-19T03:33:24;15.77;;;14.15;;
62880;SDS011;48969;49.934;8.596;2022-08-19T03:36:03;16.63;;;15.02;;
62880;SDS011;48969;49.934;8.596;2022-08-19T03:38:37;15.32;;;13.93;;
62880;SDS011;48969;49.934;8.596;2022-08-19T03:41:06;16.35;;;14.70;;
62880;SDS011;48969;49.934;8.596;2022-08-19T03:43:35;15.10;;;13.60;;
62880;SDS011;48969;49.934;8.596;2022-08-19T03:46:02;16.33;;;14.75;;
62880;SDS011;48969;49.934;8.596;2022-08-19T03:48:30;17.27;;;15.57;;
62880;SDS011;48969;49.934;8.596;2022-08-19T03:50:56;16.27;;;14.75;;
62880;SDS011;48969;49.934;8.596;2022-08-19T03:53:23;15.57;;;14.02;;
62880;SDS011;48969;49.934;8.596;2022-08-19T03:55:51;17.30;;;15.60;;
62880;SDS011;48969;49.934;8.596;2022-08-19T03:58:16;16.60;;;14.80;;
62880;SDS011;48969;49.934;8.596;2022-08-19T04:00:42;18.40;;;16.17;;
62880;SDS011;48969;49.934;8.596;2022-08-19T04:03:08;16.98;;;15.30;;
62880;SDS011;48969;49.934;8.596;2022-08-19T04:05:33;18.17;;;16.27;;
62880;SDS011;48969;49.934;8.596;2022-08-19T04:07:59;15.38;;;13.80;;
62880;SDS011;48969;49.934;8.596;2022-08-19T04:10:25;16.92;;;15.20;;
62880;SDS011;48969;49.934;8.596;2022-08-19T04:12:53;17.15;;;15.35;;
62880;SDS011;48969;49.934;8.596;2022-08-19T04:15:18;17.52;;;15.70;;
62880;SDS011;48969;49.934;8.596;2022-08-19T04:17:44;16.15;;;14.55;;
62880;SDS011;48969;49.934;8.596;2022-08-19T04:20:10;16.20;;;13.90;;
62880;SDS011;48969;49.934;8.596;2022-08-19T04:22:35;16.65;;;14.95;;
62880;SDS011;48969;49.934;8.596;2022-08-19T04:25:01;16.27;;;14.68;;
62880;SDS011;48969;49.934;8.596;2022-08-19T04:27:27;15.95;;;14.38;;
62880;SDS011;48969;49.934;8.596;2022-08-19T04:29:55;15.75;;;14.25;;
62880;SDS011;48969;49.934;8.596;2022-08-19T04:32:20;15.82;;;14.27;;
62880;SDS011;48969;49.934;8.596;2022-08-19T04:34:46;15.73;;;14.15;;
62880;SDS011;48969;49.934;8.596;2022-08-19T04:37:12;16.80;;;15.20;;
62880;SDS011;48969;49.934;8.596;2022-08-19T04:39:38;16.85;;;15.15;;
62880;SDS011;48969;49.934;8.596;2022-08-19T04:42:23;16.05;;;14.45;;
62880;SDS011;48969;49.934;8.596;2022-08-19T04:45:05;17.33;;;15.55;;
62880;SDS011;48969;49.934;8.596;2022-08-19T04:47:31;17.55;;;15.80;;
62880;SDS011;48969;49.934;8.596;2022-08-19T04:49:58;17.27;;;15.68;;
62880;SDS011;48969;49.934;8.596;2022-08-19T04:52:24;16.00;;;14.35;;
62880;SDS011;48969;49.934;8.596;2022-08-19T04:54:49;16.58;;;14.80;;
62880;SDS011;48969;49.934;8.596;2022-08-19T04:57:15;17.52;;;15.82;;
62880;SDS011;48969;49.934;8.596;2022-08-19T04:59:40;17.08;;;15.32;;
62880;SDS011;48969;49.934;8.596;2022-08-19T05:02:06;17.40;;;15.65;;
62880;SDS011;48969;49.934;8.596;2022-08-19T05:04:33;18.00;;;16.17;;
62880;SDS011;48969;49.934;8.596;2022-08-19T05:07:03;17.55;;;15.65;;
62880;SDS011;48969;49.934;8.596;2022-08-19T05:09:28;18.25;;;16.38;;
62880;SDS011;48969;49.934;8.596;2022-08-19T05:11:55;18.25;;;16.38;;
62880;SDS011;48969;49.934;8.596;2022-08-19T05:14:22;17.83;;;16.10;;
62880;SDS011;48969;49.934;8.596;2022-08-19T05:16:48;17.08;;;15.30;;
62880;SDS011;48969;49.934;8.596;2022-08-19T05:19:13;18.17;;;16.25;;
62880;SDS011;48969;49.934;8.596;2022-08-19T05:21:57;18.83;;;15.70;;
62880;SDS011;48969;49.934;8.596;2022-08-19T05:24:43;16.60;;;14.90;;
62880;SDS011;48969;49.934;8.596;2022-08-19T05:27:08;16.75;;;15.05;;
62880;SDS011;48969;49.934;8.596;2022-08-19T05:29:34;17.15;;;15.45;;
62880;SDS011;48969;49.934;8.596;2022-08-19T05:32:00;17.20;;;15.48;;
62880;SDS011;48969;49.934;8.596;2022-08-19T05:34:28;16.25;;;14.55;;
62880;SDS011;48969;49.934;8.596;2022-08-19T05:36:54;18.17;;;15.52;;
62880;SDS011;48969;49.934;8.596;2022-08-19T05:39:22;17.50;;;15.75;;
62880;SDS011;48969;49.934;8.596;2022-08-19T05:41:52;17.33;;;15.63;;
62880;SDS011;48969;49.934;8.596;2022-08-19T05:44:22;17.42;;;15.73;;
62880;SDS011;48969;49.934;8.596;2022-08-19T05:46:52;16.65;;;15.05;;
62880;SDS011;48969;49.934;8.596;2022-08-19T05:49:18;16.75;;;15.05;;
62880;SDS011;48969;49.934;8.596;2022-08-19T05:51:46;17.05;;;15.07;;
62880;SDS011;48969;49.934;8.596;2022-08-19T05:54:12;15.93;;;14.32;;
62880;SDS011;48969;49.934;8.596;2022-08-19T05:56:39;16.85;;;15.15;;
62880;SDS011;48969;49.934;8.596;2022-08-19T05:59:05;16.35;;;14.38;;
62880;SDS011;48969;49.934;8.596;2022-08-19T06:01:39;16.88;;;15.18;;
62880;SDS011;48969;49.934;8.596;2022-08-19T06:04:06;17.02;;;15.23;;
62880;SDS011;48969;49.934;8.596;2022-08-19T06:06:32;16.35;;;14.70;;
62880;SDS011;48969;49.934;8.596;2022-08-19T06:09:01;16.50;;;14.90;;
62880;SDS011;48969;49.934;8.596;2022-08-19T06:11:39;15.63;;;14.10;;
62880;SDS011;48969;49.934;8.596;2022-08-19T06:14:09;17.73;;;15.93;;
62880;SDS011;48969;49.934;8.596;2022-08-19T06:16:38;17.45;;;15.63;;
62880;SDS011;48969;49.934;8.596;2022-08-19T06:19:07;15.60;;;14.05;;
62880;SDS011;48969;49.934;8.596;2022-08-19T06:21:35;16.17;;;14.57;;
62880;SDS011;48969;49.934;8.596;2022-08-19T06:24:03;14.68;;;13.25;;
62880;SDS011;48969;49.934;8.596;2022-08-19T06:26:30;16.15;;;14.43;;
62880;SDS011;48969;49.934;8.596;2022-08-19T06:28:57;15.85;;;14.35;;
62880;SDS011;48969;49.934;8.596;2022-08-19T06:31:24;16.08;;;14.57;;
62880;SDS011;48969;49.934;8.596;2022-08-19T06:33:51;14.07;;;12.77;;
62880;SDS011;48969;49.934;8.596;2022-08-19T06:36:21;16.15;;;14.43;;
62880;SDS011;48969;49.934;8.596;2022-08-19T06:38:51;14.55;;;13.13;;
62880;SDS011;48969;49.934;8.596;2022-08-19T06:41:17;14.55;;;13.05;;
62880;SDS011;48969;49.934;8.596;2022-08-19T06:43:42;13.13;;;11.82;;
62880;SDS011;48969;49.934;8.596;2022-08-19T06:46:09;13.68;;;12.32;;
62880;SDS011;48969;49.934;8.596;2022-08-19T06:48:39;13.80;;;12.40;;
62880;SDS011;48969;49.934;8.596;2022-08-19T06:51:05;13.82;;;11.40;;
62880;SDS011;48969;49.934;8.596;2022-08-19T06:53:31;12.02;;;10.85;;
62880;SDS011;48969;49.934;8.596;2022-08-19T06:55:57;12.43;;;11.13;;
62880;SDS011;48969;49.934;8.596;2022-08-19T06:58:27;12.07;;;10.88;;
62880;SDS011;48969;49.934;8.596;2022-08-19T07:01:01;12.55;;;11.25;;
62880;SDS011;48969;49.934;8.596;2022-08-19T07:03:30;12.43;;;11.15;;
62880;SDS011;48969;49.934;8.596;2022-08-19T07:06:06;12.60;;;10.95;;
62880;SDS011;48969;49.934;8.596;2022-08-19T07:08:36;11.60;;;10.50;;
62880;SDS011;48969;49.934;8.596;2022-08-19T07:11:08;11.73;;;9.75;;
62880;SDS011;48969;49.934;8.596;2022-08-19T07:13:35;10.93;;;9.82;;
62880;SDS011;48969;49.934;8.596;2022-08-19T07:16:12;10.85;;;9.75;;
62880;SDS011;48969;49.934;8.596;2022-08-19T07:18:40;9.50;;;8.60;;
62880;SDS011;48969;49.934;8.596;2022-08-19T07:21:27;9.55;;;8.55;;
62880;SDS011;48969;49.934;8.596;2022-08-19T07:23:56;9.02;;;8.13;;
62880;SDS011;48969;49.934;8.596;2022-08-19T07:26:33;9.35;;;8.20;;
62880;SDS011;48969;49.934;8.596;2022-08-19T07:29:04;9.38;;;8.38;;
62880;SDS011;48969;49.934;8.596;2022-08-19T07:31:33;9.02;;;8.13;;
62880;SDS011;48969;49.934;8.596;2022-08-19T07:34:03;8.93;;;7.78;;
62880;SDS011;48969;49.934;8.596;2022-08-19T07:36:34;8.55;;;7.70;;
62880;SDS011;48969;49.934;8.596;2022-08-19T07:39:03;7.65;;;6.93;;
62880;SDS011;48969;49.934;8.596;2022-08-19T07:41:34;7.60;;;6.80;;
62880;SDS011;48969;49.934;8.596;2022-08-19T07:44:03;6.78;;;6.10;;
62880;SDS011;48969;49.934;8.596;2022-08-19T07:46:40;8.13;;;6.43;;
62880;SDS011;48969;49.934;8.596;2022-08-19T07:49:10;7.60;;;6.25;;
62880;SDS011;48969;49.934;8.596;2022-08-19T07:51:42;7.05;;;6.35;;
62880;SDS011;48969;49.934;8.596;2022-08-19T07:54:10;7.57;;;6.80;;
62880;SDS011;48969;49.934;8.596;2022-08-19T07:56:37;9.13;;;7.55;;
62880;SDS011;48969;49.934;8.596;2022-08-19T07:59:03;8.77;;;7.03;;
62880;SDS011;48969;49.934;8.596;2022-08-19T08:01:28;8.60;;;6.68;;
62880;SDS011;48969;49.934;8.596;2022-08-19T08:03:55;7.00;;;6.30;;
62880;SDS011;48969;49.934;8.596;2022-08-19T08:06:42;7.50;;;6.03;;
62880;SDS011;48969;49.934;8.596;2022-08-19T08:09:30;6.35;;;5.60;;
62880;SDS011;48969;49.934;8.596;2022-08-19T08:12:00;8.23;;;5.70;;
62880;SDS011;48969;49.934;8.596;2022-08-19T08:14:30;7.20;;;5.72;;
62880;SDS011;48969;49.934;8.596;2022-08-19T08:17:07;6.63;;;5.55;;
62880;SDS011;48969;49.934;8.596;2022-08-19T08:19:35;8.10;;;5.40;;
62880;SDS011;48969;49.934;8.596;2022-08-19T08:22:03;4.95;;;4.43;;
62880;SDS011;48969;49.934;8.596;2022-08-19T08:24:31;6.93;;;5.28;;
62880;SDS011;48969;49.934;8.596;2022-08-19T08:26:57;5.82;;;4.75;;
62880;SDS011;48969;49.934;8.596;2022-08-19T08:29:25;6.35;;;5.30;;
62880;SDS011;48969;49.934;8.596;2022-08-19T08:31:54;5.88;;;5.28;;
62880;SDS011;48969;49.934;8.596;2022-08-19T08:34:20;6.03;;;5.10;;
62880;SDS011;48969;49.934;8.596;2022-08-19T08:36:46;5.53;;;5.00;;
62880;SDS011;48969;49.934;8.596;2022-08-19T08:39:14;5.35;;;4.85;;
62880;SDS011;48969;49.934;8.596;2022-08-19T08:41:47;6.90;;;5.10;;
62880;SDS011;48969;49.934;8.596;2022-08-19T08:44:28;6.90;;;4.95;;
62880;SDS011;48969;49.934;8.596;2022-08-19T08:47:06;7.95;;;5.57;;
62880;SDS011;48969;49.934;8.596;2022-08-19T08:52:29;5.90;;;5.30;;
62880;SDS011;48969;49.934;8.596;2022-08-19T08:55:05;7.68;;;5.22;;
62880;SDS011;48969;49.934;8.596;2022-08-19T08:59:58;5.32;;;4.63;;
62880;SDS011;48969;49.934;8.596;2022-08-19T09:02:30;6.22;;;5.63;;
62880;SDS011;48969;49.934;8.596;2022-08-19T09:04:56;7.07;;;5.65;;
62880;SDS011;48969;49.934;8.596;2022-08-19T09:09:52;7.55;;;5.75;;
62880;SDS011;48969;49.934;8.596;2022-08-19T09:12:43;5.20;;;4.70;;
62880;SDS011;48969;49.934;8.596;2022-08-19T09:15:42;6.50;;;5.50;;
62880;SDS011;48969;49.934;8.596;2022-08-19T09:18:13;7.43;;;6.67;;
62880;SDS011;48969;49.934;8.596;2022-08-19T09:20:38;11.23;;;6.60;;
62880;SDS011;48969;49.934;8.596;2022-08-19T09:23:04;11.48;;;6.18;;
62880;SDS011;48969;49.934;8.596;2022-08-19T09:25:29;7.43;;;5.72;;
62880;SDS011;48969;49.934;8.596;2022-08-19T09:27:57;7.05;;;6.25;;
62880;SDS011;48969;49.934;8.596;2022-08-19T09:30:29;6.97;;;5.80;;
62880;SDS011;48969;49.934;8.596;2022-08-19T09:32:59;7.40;;;6.15;;
62880;SDS011;48969;49.934;8.596;2022-08-19T09:35:28;7.85;;;6.15;;
62880;SDS011;48969;49.934;8.596;2022-08-19T09:37:56;6.28;;;5.68;;
62880;SDS011;48969;49.934;8.596;2022-08-19T09:40:22;8.70;;;7.57;;
62880;SDS011;48969;49.934;8.596;2022-08-19T09:42:51;7.60;;;6.20;;
62880;SDS011;48969;49.934;8.596;2022-08-19T09:45:18;8.07;;;7.28;;
62880;SDS011;48969;49.934;8.596;2022-08-19T09:47:49;7.22;;;6.53;;
62880;SDS011;48969;49.934;8.596;2022-08-19T09:50:16;7.07;;;6.38;;
62880;SDS011;48969;49.934;8.596;2022-08-19T09:52:43;6.80;;;6.10;;
62880;SDS011;48969;49.934;8.596;2022-08-19T09:57:45;6.97;;;6.28;;
62880;SDS011;48969;49.934;8.596;2022-08-19T10:00:11;8.10;;;7.20;;
62880;SDS011;48969;49.934;8.596;2022-08-19T10:02:38;9.93;;;7.45;;
62880;SDS011;48969;49.934;8.596;2022-08-19T10:05:03;7.47;;;6.78;;
62880;SDS011;48969;49.934;8.596;2022-08-19T10:07:48;8.63;;;7.72;;
62880;SDS011;48969;49.934;8.596;2022-08-19T10:10:13;7.35;;;6.38;;
62880;SDS011;48969;49.934;8.596;2022-08-19T10:12:40;7.43;;;6.50;;
62880;SDS011;48969;49.934;8.596;2022-08-19T10:15:06;9.30;;;6.72;;
62880;SDS011;48969;49.934;8.596;2022-08-19T10:17:31;6.63;;;5.65;;
62880;SDS011;48969;49.934;8.596;2022-08-19T10:20:00;6.60;;;6.00;;
62880;SDS011;48969;49.934;8.596;2022-08-19T10:22:27;14.57;;;7.65;;
62880;SDS011;48969;49.934;8.596;2022-08-19T10:24:54;9.35;;;8.38;;
62880;SDS011;48969;49.934;8.596;2022-08-19T10:27:19;9.57;;;7.25;;
62880;SDS011;48969;49.934;8.596;2022-08-19T10:29:45;8.68;;;7.13;;
62880;SDS011;48969;49.934;8.596;2022-08-19T10:32:12;7.75;;;7.03;;
62880;SDS011;48969;49.934;8.596;2022-08-19T10:34:38;12.15;;;8.05;;
62880;SDS011;48969;49.934;8.596;2022-08-19T10:37:05;12.88;;;7.93;;
62880;SDS011;48969;49.934;8.596;2022-08-19T10:39:34;8.45;;;7.38;;
62880;SDS011;48969;49.934;8.596;2022-08-19T10:42:07;9.65;;;7.70;;
62880;SDS011;48969;49.934;8.596;2022-08-19T10:44:35;9.38;;;7.70;;
62880;SDS011;48969;49.934;8.596;2022-08-19T10:47:01;7.88;;;7.00;;
62880;SDS011;48969;49.934;8.596;2022-08-19T10:49:28;8.95;;;7.32;;
62880;SDS011;48969;49.934;8.596;2022-08-19T10:51:53;7.95;;;7.22;;
62880;SDS011;48969;49.934;8.596;2022-08-19T10:54:37;7.70;;;6.88;;
62880;SDS011;48969;49.934;8.596;2022-08-19T10:57:21;6.80;;;6.18;;
62880;SDS011;48969;49.934;8.596;2022-08-19T10:59:49;6.72;;;5.97;;
62880;SDS011;48969;49.934;8.596;2022-08-19T11:02:14;8.75;;;6.68;;
62880;SDS011;48969;49.934;8.596;2022-08-19T11:04:40;7.53;;;6.80;;
62880;SDS011;48969;49.934;8.596;2022-08-19T11:07:06;7.22;;;6.53;;
62880;SDS011;48969;49.934;8.596;2022-08-19T11:09:36;8.35;;;6.45;;
62880;SDS011;48969;49.934;8.596;2022-08-19T11:12:04;6.73;;;5.97;;
62880;SDS011;48969;49.934;8.596;2022-08-19T11:14:31;6.82;;;6.13;;
62880;SDS011;48969;49.934;8.596;2022-08-19T11:16:58;7.07;;;6.38;;
62880;SDS011;48969;49.934;8.596;2022-08-19T11:19:24;8.70;;;6.18;;
62880;SDS011;48969;49.934;8.596;2022-08-19T11:21:50;7.55;;;6.75;;
62880;SDS011;48969;49.934;8.596;2022-08-19T11:24:19;7.20;;;6.50;;
62880;SDS011;48969;49.934;8.596;2022-08-19T11:26:47;8.18;;;7.35;;
62880;SDS011;48969;49.934;8.596;2022-08-19T11:29:17;8.90;;;7.85;;
62880;SDS011;48969;49.934;8.596;2022-08-19T11:31:47;8.40;;;7.55;;
62880;SDS011;48969;49.934;8.596;2022-08-19T11:34:15;8.75;;;7.38;;
62880;SDS011;48969;49.934;8.596;2022-08-19T11:36:43;8.38;;;7.20;;
62880;SDS011;48969;49.934;8.596;2022-08-19T11:39:12;9.10;;;7.85;;
62880;SDS011;48969;49.934;8.596;2022-08-19T11:41:40;11.65;;;8.10;;
62880;SDS011;48969;49.934;8.596;2022-08-19T11:44:06;10.23;;;9.13;;
62880;SDS011;48969;49.934;8.596;2022-08-19T11:46:33;9.57;;;8.68;;
62880;SDS011;48969;49.934;8.596;2022-08-19T11:48:59;10.13;;;8.65;;
62880;SDS011;48969;49.934;8.596;2022-08-19T11:51:26;10.57;;;9.05;;
62880;SDS011;48969;49.934;8.596;2022-08-19T11:53:53;10.48;;;9.02;;
62880;SDS011;48969;49.934;8.596;2022-08-19T11:56:21;10.75;;;8.88;;
62880;SDS011;48969;49.934;8.596;2022-08-19T11:58:47;11.07;;;10.07;;
62880;SDS011;48969;49.934;8.596;2022-08-19T12:01:14;10.35;;;9.35;;
62880;SDS011;48969;49.934;8.596;2022-08-19T12:03:41;10.18;;;8.95;;
62880;SDS011;48969;49.934;8.596;2022-08-19T12:06:08;8.93;;;8.13;;
62880;SDS011;48969;49.934;8.596;2022-08-19T12:08:37;8.52;;;7.63;;
62880;SDS011;48969;49.934;8.596;2022-08-19T12:11:08;10.23;;;8.07;;
62880;SDS011;48969;49.934;8.596;2022-08-19T12:13:35;9.70;;;8.55;;
62880;SDS011;48969;49.934;8.596;2022-08-19T12:16:06;10.25;;;9.25;;
62880;SDS011;48969;49.934;8.596;2022-08-19T12:18:35;9.90;;;8.40;;
62880;SDS011;48969;49.934;8.596;2022-08-19T12:21:01;8.07;;;7.28;;
62880;SDS011;48969;49.934;8.596;2022-08-19T12:23:26;7.63;;;6.93;;
62880;SDS011;48969;49.934;8.596;2022-08-19T12:25:51;8.50;;;7.15;;
62880;SDS011;48969;49.934;8.596;2022-08-19T12:28:18;8.30;;;7.57;;
62880;SDS011;48969;49.934;8.596;2022-08-19T12:30:46;7.25;;;6.32;;
62880;SDS011;48969;49.934;8.596;2022-08-19T12:33:13;7.35;;;5.78;;
62880;SDS011;48969;49.934;8.596;2022-08-19T12:35:43;6.97;;;5.90;;
62880;SDS011;48969;49.934;8.596;2022-08-19T12:38:12;6.95;;;5.63;;
62880;SDS011;48969;49.934;8.596;2022-08-19T12:40:38;6.22;;;5.63;;
62880;SDS011;48969;49.934;8.596;2022-08-19T12:43:07;10.35;;;5.85;;
62880;SDS011;48969;49.934;8.596;2022-08-19T12:45:34;5.80;;;5.20;;
62880;SDS011;48969;49.934;8.596;2022-08-19T12:47:59;5.90;;;5.30;;
62880;SDS011;48969;49.934;8.596;2022-08-19T12:50:25;5.65;;;5.13;;
62880;SDS011;48969;49.934;8.596;2022-08-19T12:52:50;6.82;;;4.95;;
62880;SDS011;48969;49.934;8.596;2022-08-19T12:55:16;5.20;;;4.70;;
62880;SDS011;48969;49.934;8.596;2022-08-19T12:57:43;5.28;;;4.78;;
62880;SDS011;48969;49.934;8.596;2022-08-19T13:00:11;4.70;;;4.13;;
62880;SDS011;48969;49.934;8.596;2022-08-19T13:02:39;6.63;;;5.25;;
62880;SDS011;48969;49.934;8.596;2022-08-19T13:05:10;5.80;;;5.18;;
62880;SDS011;48969;49.934;8.596;2022-08-19T13:07:41;5.40;;;4.90;;
62880;SDS011;48969;49.934;8.596;2022-08-19T13:10:09;5.40;;;4.90;;
62880;SDS011;48969;49.934;8.596;2022-08-19T13:12:36;6.15;;;5.13;;
62880;SDS011;48969;49.934;8.596;2022-08-19T13:15:02;4.32;;;3.90;;
62880;SDS011;48969;49.934;8.596;2022-08-19T13:17:28;4.60;;;4.03;;
62880;SDS011;48969;49.934;8.596;2022-08-19T13:19:53;4.97;;;4.57;;
62880;SDS011;48969;49.934;8.596;2022-08-19T13:22:19;5.22;;;4.80;;
62880;SDS011;48969;49.934;8.596;2022-08-19T13:24:44;5.22;;;4.72;;
62880;SDS011;48969;49.934;8.596;2022-08-19T13:27:10;5.13;;;4.07;;
62880;SDS011;48969;49.934;8.596;2022-08-19T13:29:35;5.05;;;4.40;;
62880;SDS011;48969;49.934;8.596;2022-08-19T13:32:19;3.88;;;3.58;;
62880;SDS011;48969;49.934;8.596;2022-08-19T13:35:03;4.68;;;4.25;;
62880;SDS011;48969;49.934;8.596;2022-08-19T13:37:29;6.15;;;4.28;;
62880;SDS011;48969;49.934;8.596;2022-08-19T13:40:15;4.65;;;4.22;;
62880;SDS011;48969;49.934;8.596;2022-08-19T13:42:47;5.35;;;4.20;;
62880;SDS011;48969;49.934;8.596;2022-08-19T13:45:15;4.10;;;3.70;;
62880;SDS011;48969;49.934;8.596;2022-08-19T13:47:45;4.20;;;3.55;;
62880;SDS011;48969;49.934;8.596;2022-08-19T13:50:12;3.67;;;3.30;;
62880;SDS011;48969;49.934;8.596;2022-08-19T13:52:43;4.50;;;3.63;;
62880;SDS011;48969;49.934;8.596;2022-08-19T13:55:09;4.10;;;3.25;;
62880;SDS011;48969;49.934;8.596;2022-08-19T13:57:36;3.65;;;3.35;;
62880;SDS011;48969;49.934;8.596;2022-08-19T14:00:09;4.55;;;3.70;;
62880;SDS011;48969;49.934;8.596;2022-08-19T14:02:40;4.38;;;3.50;;
62880;SDS011;48969;49.934;8.596;2022-08-19T14:05:08;3.90;;;3.42;;
62880;SDS011;48969;49.934;8.596;2022-08-19T14:07:36;4.90;;;3.08;;
62880;SDS011;48969;49.934;8.596;2022-08-19T14:10:02;3.25;;;2.95;;
62880;SDS011;48969;49.934;8.596;2022-08-19T14:12:33;3.65;;;3.25;;
62880;SDS011;48969;49.934;8.596;2022-08-19T14:15:00;4.85;;;3.50;;
62880;SDS011;48969;49.934;8.596;2022-08-19T14:17:25;4.13;;;3.50;;
62880;SDS011;48969;49.934;8.596;2022-08-19T14:20:01;14.20;;;4.35;;
62880;SDS011;48969;49.934;8.596;2022-08-19T14:22:32;5.50;;;3.85;;
62880;SDS011;48969;49.934;8.596;2022-08-19T14:24:58;3.95;;;3.55;;
62880;SDS011;48969;49.934;8.596;2022-08-19T14:27:24;3.63;;;3.33;;
62880;SDS011;48969;49.934;8.596;2022-08-19T14:29:50;4.50;;;3.72;;
62880;SDS011;48969;49.934;8.596;2022-08-19T14:32:16;10.15;;;4.20;;
62880;SDS011;48969;49.934;8.596;2022-08-19T14:34:42;4.43;;;3.10;;
62880;SDS011;48969;49.934;8.596;2022-08-19T14:37:11;3.72;;;3.08;;
62880;SDS011;48969;49.934;8.596;2022-08-19T14:39:38;8.75;;;3.88;;
62880;SDS011;48969;49.934;8.596;2022-08-19T14:42:06;16.00;;;4.70;;
62880;SDS011;48969;49.934;8.596;2022-08-19T14:44:33;14.60;;;4.13;;
62880;SDS011;48969;49.934;8.596;2022-08-19T14:46:59;11.75;;;4.30;;
62880;SDS011;48969;49.934;8.596;2022-08-19T14:49:25;6.35;;;3.33;;
62880;SDS011;48969;49.934;8.596;2022-08-19T14:51:50;5.20;;;3.55;;
62880;SDS011;48969;49.934;8.596;2022-08-19T14:54:16;4.70;;;3.72;;